sensor_id;sensor_type;location;lat;lon;timestamp;pressure;altitude;pressure_sealevel;temperature;humidity
57894;BME280;43710;47.460;19.034;2024-03-06T04:59:40;100474.00;;;8.38;98.79
57894;BME280;43710;47.460;19.034;2024-03-06T05:02:42;100474.00;;;8.38;98.79
57894;BME280;43710;47.460;19.034;2024-03-06T05:06:03;100470.84;;;7.93;100.00
57894;BME280;43710;47.460;19.034;2024-03-06T05:09:25;100470.28;;;7.86;100.00
57894;BME280;43710;47.460;19.034;2024-03-06T05:12:44;100475.91;;;7.90;100.00
57894;BME280;43710;47.460;19.034;2024-03-06T05:16:05;100472.16;;;7.86;100.00
57894;BME280;43710;47.460;19.034;2024-03-06T05:19:25;100465.22;;;7.85;100.00
57894;BME280;43710;47.460;19.034;2024-03-06T05:22:51;100465.69;;;7.76;99.13
57894;BME280;43710;47.460;19.034;2024-03-06T05:26:11;100466.03;;;7.90;100.00
57894;BME280;43710;47.460;19.034;2024-03-06T05:29:30;100464.47;;;7.99;100.00
57894;BME280;43710;47.460;19.034;2024-03-06T05:32:50;100471.59;;;7.79;100.00
57894;BME280;43710;47.460;19.034;2024-03-06T05:36:10;100467.91;;;7.90;96.70
57894;BME280;43710;47.460;19.034;2024-03-06T05:39:32;100469.56;;;8.06;100.00
57894;BME280;43710;47.460;19.034;2024-03-06T05:42:52;100474.63;;;8.03;96.38
57894;BME280;43710;47.460;19.034;2024-03-06T05:46:12;100478.09;;;7.98;100.00
57894;BME280;43710;47.460;19.034;2024-03-06T05:49:32;100477.03;;;8.04;100.00
57894;BME280;43710;47.460;19.034;2024-03-06T05:52:52;100477.31;;;8.03;97.59
57894;BME280;43710;47.460;19.034;2024-03-06T05:56:12;100476.56;;;8.22;91.99
57894;BME280;43710;47.460;19.034;2024-03-06T05:59:31;100485.59;;;8.06;91.71
57894;BME280;43710;47.460;19.034;2024-03-06T06:02:34;100480.25;;;8.06;100.00
57894;BME280;43710;47.460;19.034;2024-03-06T06:05:37;100488.06;;;8.18;100.00
57894;BME280;43710;47.460;19.034;2024-03-06T06:08:41;100493.63;;;8.11;94.63
57894;BME280;43710;47.460;19.034;2024-03-06T06:11:44;100491.00;;;8.27;90.16
57894;BME280;43710;47.460;19.034;2024-03-06T06:14:47;100497.69;;;8.29;89.94
57894;BME280;43710;47.460;19.034;2024-03-06T06:17:49;100499.00;;;8.21;90.05
57894;BME280;43710;47.460;19.034;2024-03-06T06:20:51;100500.44;;;8.39;88.07
57894;BME280;43710;47.460;19.034;2024-03-06T06:23:54;100492.34;;;8.29;89.75
57894;BME280;43710;47.460;19.034;2024-03-06T06:26:56;100504.13;;;8.33;87.81
57894;BME280;43710;47.460;19.034;2024-03-06T06:29:58;100495.59;;;8.31;98.20
57894;BME280;43710;47.460;19.034;2024-03-06T06:33:03;100501.44;;;8.33;91.33
57894;BME280;43710;47.460;19.034;2024-03-06T06:36:06;100500.75;;;8.48;88.59
57894;BME280;43710;47.460;19.034;2024-03-06T06:39:08;100507.13;;;8.42;87.72
57894;BME280;43710;47.460;19.034;2024-03-06T06:42:12;100500.22;;;8.51;87.56
57894;BME280;43710;47.460;19.034;2024-03-06T06:45:16;100500.47;;;8.50;93.33
57894;BME280;43710;47.460;19.034;2024-03-06T06:48:18;100502.63;;;8.63;89.18
57894;BME280;43710;47.460;19.034;2024-03-06T06:51:21;100504.78;;;8.66;87.95
57894;BME280;43710;47.460;19.034;2024-03-06T06:54:23;100508.53;;;8.80;88.34
57894;BME280;43710;47.460;19.034;2024-03-06T06:57:25;100512.59;;;8.88;87.62
57894;BME280;43710;47.460;19.034;2024-03-06T07:00:28;100516.59;;;8.85;89.05
57894;BME280;43710;47.460;19.034;2024-03-06T07:03:33;100517.91;;;8.93;88.53
57894;BME280;43710;47.460;19.034;2024-03-06T07:06:36;100513.91;;;8.96;88.05
57894;BME280;43710;47.460;19.034;2024-03-06T07:09:38;100518.47;;;9.00;88.01
57894;BME280;43710;47.460;19.034;2024-03-06T07:12:41;100514.75;;;9.11;88.06
57894;BME280;43710;47.460;19.034;2024-03-06T07:15:43;100517.41;;;9.16;88.42
57894;BME280;43710;47.460;19.034;2024-03-06T07:18:46;100512.59;;;9.34;88.50
57894;BME280;43710;47.460;19.034;2024-03-06T07:21:48;100512.31;;;9.46;88.72
57894;BME280;43710;47.460;19.034;2024-03-06T07:24:51;100517.12;;;9.59;89.02
57894;BME280;43710;47.460;19.034;2024-03-06T07:27:53;100517.91;;;9.59;88.25
57894;BME280;43710;47.460;19.034;2024-03-06T07:30:55;100509.88;;;9.70;89.26
57894;BME280;43710;47.460;19.034;2024-03-06T07:33:58;100520.56;;;9.90;87.03
57894;BME280;43710;47.460;19.034;2024-03-06T07:37:00;100519.16;;;10.03;86.66
57894;BME280;43710;47.460;19.034;2024-03-06T07:40:07;100519.69;;;10.00;87.41
57894;BME280;43710;47.460;19.034;2024-03-06T07:43:11;100516.97;;;10.20;86.75
57894;BME280;43710;47.460;19.034;2024-03-06T07:46:14;100518.56;;;10.26;86.77
57894;BME280;43710;47.460;19.034;2024-03-06T07:49:16;100523.91;;;10.31;85.12
57894;BME280;43710;47.460;19.034;2024-03-06T07:52:18;100529.50;;;10.40;86.60
57894;BME280;43710;47.460;19.034;2024-03-06T07:55:21;100528.63;;;10.55;87.38
57894;BME280;43710;47.460;19.034;2024-03-06T07:58:24;100528.00;;;10.73;85.92
57894;BME280;43710;47.460;19.034;2024-03-06T08:01:26;100527.94;;;10.78;84.55
57894;BME280;43710;47.460;19.034;2024-03-06T08:04:31;100531.13;;;10.86;82.28
57894;BME280;43710;47.460;19.034;2024-03-06T08:07:33;100532.44;;;10.93;82.46
57894;BME280;43710;47.460;19.034;2024-03-06T08:10:35;100529.69;;;11.03;82.88
57894;BME280;43710;47.460;19.034;2024-03-06T08:13:38;100540.59;;;11.12;83.42
57894;BME280;43710;47.460;19.034;2024-03-06T08:16:40;100540.50;;;11.27;81.63
57894;BME280;43710;47.460;19.034;2024-03-06T08:19:44;100543.94;;;11.33;81.24
57894;BME280;43710;47.460;19.034;2024-03-06T08:22:46;100538.03;;;11.36;80.94
57894;BME280;43710;47.460;19.034;2024-03-06T08:25:49;100541.75;;;11.35;79.36
57894;BME280;43710;47.460;19.034;2024-03-06T08:28:51;100539.91;;;11.36;78.77
57894;BME280;43710;47.460;19.034;2024-03-06T08:31:54;100540.12;;;11.68;100.00
57894;BME280;43710;47.460;19.034;2024-03-06T08:35:04;100527.47;;;11.74;84.63
57894;BME280;43710;47.460;19.034;2024-03-06T08:38:08;100538.00;;;11.65;79.15
57894;BME280;43710;47.460;19.034;2024-03-06T08:41:10;100532.75;;;11.84;94.12
57894;BME280;43710;47.460;19.034;2024-03-06T08:44:13;100539.97;;;12.13;90.20
57894;BME280;43710;47.460;19.034;2024-03-06T08:47:16;100536.19;;;12.14;81.12
57894;BME280;43710;47.460;19.034;2024-03-06T08:50:19;100533.84;;;12.07;87.91
57894;BME280;43710;47.460;19.034;2024-03-06T08:53:22;100531.69;;;12.09;77.57
57894;BME280;43710;47.460;19.034;2024-03-06T08:56:25;100530.91;;;12.09;76.40
57894;BME280;43710;47.460;19.034;2024-03-06T08:59:29;100543.00;;;12.06;73.25
57894;BME280;43710;47.460;19.034;2024-03-06T09:02:31;100540.94;;;11.98;73.38
57894;BME280;43710;47.460;19.034;2024-03-06T09:05:34;100541.72;;;11.98;77.98
57894;BME280;43710;47.460;19.034;2024-03-06T09:08:36;100536.88;;;12.01;72.58
57894;BME280;43710;47.460;19.034;2024-03-06T09:11:38;100535.47;;;12.32;88.69
57894;BME280;43710;47.460;19.034;2024-03-06T09:14:42;100542.94;;;12.35;73.55
57894;BME280;43710;47.460;19.034;2024-03-06T09:17:45;100531.69;;;12.71;85.26
57894;BME280;43710;47.460;19.034;2024-03-06T09:20:49;100537.28;;;12.75;76.91
57894;BME280;43710;47.460;19.034;2024-03-06T09:23:51;100540.22;;;12.78;69.44
57894;BME280;43710;47.460;19.034;2024-03-06T09:26:54;100537.59;;;12.73;70.86
57894;BME280;43710;47.460;19.034;2024-03-06T09:29:56;100535.19;;;12.90;82.79
57894;BME280;43710;47.460;19.034;2024-03-06T09:32:58;100533.66;;;13.03;83.32
57894;BME280;43710;47.460;19.034;2024-03-06T09:36:02;100526.53;;;12.93;69.65
57894;BME280;43710;47.460;19.034;2024-03-06T09:39:04;100535.53;;;13.22;76.56
57894;BME280;43710;47.460;19.034;2024-03-06T09:42:10;100519.97;;;13.19;69.38
57894;BME280;43710;47.460;19.034;2024-03-06T09:45:12;100518.81;;;13.06;71.89
57894;BME280;43710;47.460;19.034;2024-03-06T09:48:15;100522.31;;;13.06;70.36
57894;BME280;43710;47.460;19.034;2024-03-06T09:51:18;100517.78;;;13.21;70.93
57894;BME280;43710;47.460;19.034;2024-03-06T09:54:21;100515.97;;;13.16;70.16
57894;BME280;43710;47.460;19.034;2024-03-06T09:57:26;100518.47;;;12.93;70.36
57894;BME280;43710;47.460;19.034;2024-03-06T10:00:28;100519.84;;;12.91;71.94
57894;BME280;43710;47.460;19.034;2024-03-06T10:03:31;100507.53;;;13.04;74.19
57894;BME280;43710;47.460;19.034;2024-03-06T10:06:33;100511.31;;;13.22;77.71
57894;BME280;43710;47.460;19.034;2024-03-06T10:09:37;100510.38;;;13.31;71.46
57894;BME280;43710;47.460;19.034;2024-03-06T10:12:39;100515.06;;;13.39;75.38
57894;BME280;43710;47.460;19.034;2024-03-06T10:15:41;100510.56;;;13.68;88.30
57894;BME280;43710;47.460;19.034;2024-03-06T10:18:43;100501.06;;;13.70;72.72
57894;BME280;43710;47.460;19.034;2024-03-06T10:21:49;100514.72;;;13.74;70.19
57894;BME280;43710;47.460;19.034;2024-03-06T10:24:55;100506.25;;;13.80;76.42
57894;BME280;43710;47.460;19.034;2024-03-06T10:28:05;100505.25;;;13.90;71.12
57894;BME280;43710;47.460;19.034;2024-03-06T10:31:08;100501.97;;;14.07;71.56
57894;BME280;43710;47.460;19.034;2024-03-06T10:34:12;100504.78;;;14.02;68.02
57894;BME280;43710;47.460;19.034;2024-03-06T10:37:14;100497.28;;;13.99;68.76
57894;BME280;43710;47.460;19.034;2024-03-06T10:40:17;100489.41;;;14.02;67.60
57894;BME280;43710;47.460;19.034;2024-03-06T10:43:21;100493.00;;;14.12;66.68
57894;BME280;43710;47.460;19.034;2024-03-06T10:46:24;100491.50;;;14.05;65.25
57894;BME280;43710;47.460;19.034;2024-03-06T10:49:30;100485.75;;;14.48;78.78
57894;BME280;43710;47.460;19.034;2024-03-06T10:52:33;100479.31;;;14.72;87.47
57894;BME280;43710;47.460;19.034;2024-03-06T10:55:36;100475.34;;;14.92;69.85
57894;BME280;43710;47.460;19.034;2024-03-06T10:58:40;100469.66;;;14.93;77.73
57894;BME280;43710;47.460;19.034;2024-03-06T11:01:47;100470.91;;;15.18;84.38
57894;BME280;43710;47.460;19.034;2024-03-06T11:04:51;100467.59;;;15.21;67.69
57894;BME280;43710;47.460;19.034;2024-03-06T11:07:54;100470.66;;;15.06;64.34
57894;BME280;43710;47.460;19.034;2024-03-06T11:11:23;100464.53;;;14.92;62.82
57894;BME280;43710;47.460;19.034;2024-03-06T11:14:31;100457.66;;;14.86;65.95
57894;BME280;43710;47.460;19.034;2024-03-06T11:17:33;100449.81;;;14.75;62.77
57894;BME280;43710;47.460;19.034;2024-03-06T11:20:36;100447.44;;;14.74;62.87
57894;BME280;43710;47.460;19.034;2024-03-06T11:27:13;100435.62;;;14.70;62.90
57894;BME280;43710;47.460;19.034;2024-03-06T11:30:19;100439.06;;;14.62;64.03
57894;BME280;43710;47.460;19.034;2024-03-06T11:33:23;100431.00;;;14.84;76.86
57894;BME280;43710;47.460;19.034;2024-03-06T11:36:28;100431.28;;;15.05;79.90
57894;BME280;43710;47.460;19.034;2024-03-06T11:39:35;100426.31;;;14.98;68.31
57894;BME280;43710;47.460;19.034;2024-03-06T11:42:39;100427.63;;;14.78;63.29
57894;BME280;43710;47.460;19.034;2024-03-06T11:45:44;100420.91;;;14.76;64.82
57894;BME280;43710;47.460;19.034;2024-03-06T11:48:53;100419.44;;;14.92;66.08
57894;BME280;43710;47.460;19.034;2024-03-06T11:51:57;100425.28;;;14.86;62.69
57894;BME280;43710;47.460;19.034;2024-03-06T11:55:00;100413.13;;;14.97;65.42
57894;BME280;43710;47.460;19.034;2024-03-06T11:58:02;100419.81;;;14.99;63.18
57894;BME280;43710;47.460;19.034;2024-03-06T12:01:05;100419.00;;;14.99;62.40
57894;BME280;43710;47.460;19.034;2024-03-06T12:04:08;100415.12;;;15.14;80.11
57894;BME280;43710;47.460;19.034;2024-03-06T12:07:10;100411.31;;;15.15;69.31
57894;BME280;43710;47.460;19.034;2024-03-06T12:10:13;100410.44;;;15.28;76.84
57894;BME280;43710;47.460;19.034;2024-03-06T12:13:16;100406.44;;;15.25;70.60
57894;BME280;43710;47.460;19.034;2024-03-06T12:16:18;100397.44;;;15.30;69.24
57894;BME280;43710;47.460;19.034;2024-03-06T12:19:21;100403.63;;;15.39;66.37
57894;BME280;43710;47.460;19.034;2024-03-06T12:22:26;100404.41;;;15.31;65.17
57894;BME280;43710;47.460;19.034;2024-03-06T12:25:28;100399.63;;;15.28;64.68
57894;BME280;43710;47.460;19.034;2024-03-06T12:28:31;100399.13;;;15.26;65.54
57894;BME280;43710;47.460;19.034;2024-03-06T12:31:38;100397.44;;;15.30;71.02
57894;BME280;43710;47.460;19.034;2024-03-06T12:34:41;100392.25;;;15.51;72.66
57894;BME280;43710;47.460;19.034;2024-03-06T12:37:43;100392.94;;;15.65;67.07
57894;BME280;43710;47.460;19.034;2024-03-06T12:40:46;100389.50;;;15.73;73.22
57894;BME280;43710;47.460;19.034;2024-03-06T12:43:49;100388.16;;;15.62;64.36
57894;BME280;43710;47.460;19.034;2024-03-06T12:46:51;100375.81;;;15.70;69.87
57894;BME280;43710;47.460;19.034;2024-03-06T12:49:53;100382.69;;;15.76;65.06
57894;BME280;43710;47.460;19.034;2024-03-06T12:52:56;100380.72;;;15.68;62.67
57894;BME280;43710;47.460;19.034;2024-03-06T12:55:58;100376.13;;;15.68;65.14
57894;BME280;43710;47.460;19.034;2024-03-06T12:59:01;100373.75;;;15.76;67.47
57894;BME280;43710;47.460;19.034;2024-03-06T13:02:03;100365.63;;;15.76;62.40
57894;BME280;43710;47.460;19.034;2024-03-06T13:05:06;100366.47;;;15.93;71.53
57894;BME280;43710;47.460;19.034;2024-03-06T13:08:10;100365.19;;;15.91;73.65
57894;BME280;43710;47.460;19.034;2024-03-06T13:11:16;100366.16;;;15.86;71.37
57894;BME280;43710;47.460;19.034;2024-03-06T13:14:18;100360.56;;;15.74;61.74
57894;BME280;43710;47.460;19.034;2024-03-06T13:17:21;100361.28;;;15.66;74.12
57894;BME280;43710;47.460;19.034;2024-03-06T13:20:23;100361.53;;;15.78;78.30
57894;BME280;43710;47.460;19.034;2024-03-06T13:23:26;100360.66;;;15.60;67.86
57894;BME280;43710;47.460;19.034;2024-03-06T13:26:28;100363.81;;;15.54;71.09
57894;BME280;43710;47.460;19.034;2024-03-06T13:29:31;100359.06;;;15.59;78.63
57894;BME280;43710;47.460;19.034;2024-03-06T13:32:33;100355.37;;;15.55;80.68
57894;BME280;43710;47.460;19.034;2024-03-06T13:35:36;100349.22;;;15.63;81.28
57894;BME280;43710;47.460;19.034;2024-03-06T13:38:38;100341.38;;;15.44;63.03
57894;BME280;43710;47.460;19.034;2024-03-06T13:41:41;100344.09;;;15.44;71.19
57894;BME280;43710;47.460;19.034;2024-03-06T13:44:44;100337.59;;;15.63;80.96
57894;BME280;43710;47.460;19.034;2024-03-06T13:47:47;100341.00;;;15.68;76.72
57894;BME280;43710;47.460;19.034;2024-03-06T13:50:50;100333.69;;;15.69;67.26
57894;BME280;43710;47.460;19.034;2024-03-06T13:53:53;100339.44;;;15.76;79.07
57894;BME280;43710;47.460;19.034;2024-03-06T13:56:55;100332.13;;;15.77;69.04
57894;BME280;43710;47.460;19.034;2024-03-06T14:00:05;100328.75;;;15.71;68.75
57894;BME280;43710;47.460;19.034;2024-03-06T14:03:12;100330.84;;;15.74;70.89
57894;BME280;43710;47.460;19.034;2024-03-06T14:06:14;100321.84;;;15.56;66.69
57894;BME280;43710;47.460;19.034;2024-03-06T14:09:18;100328.94;;;15.74;69.46
57894;BME280;43710;47.460;19.034;2024-03-06T14:12:20;100322.88;;;15.69;64.21
57894;BME280;43710;47.460;19.034;2024-03-06T14:15:23;100317.72;;;15.59;69.52
57894;BME280;43710;47.460;19.034;2024-03-06T14:18:26;100320.56;;;15.45;65.45
57894;BME280;43710;47.460;19.034;2024-03-06T14:21:28;100323.44;;;15.48;65.17
57894;BME280;43710;47.460;19.034;2024-03-06T14:24:30;100328.37;;;15.46;65.81
57894;BME280;43710;47.460;19.034;2024-03-06T14:27:33;100325.44;;;15.25;60.86
57894;BME280;43710;47.460;19.034;2024-03-06T14:30:37;100324.13;;;15.14;70.38
57894;BME280;43710;47.460;19.034;2024-03-06T14:33:40;100326.38;;;14.90;74.30
57894;BME280;43710;47.460;19.034;2024-03-06T14:36:43;100322.16;;;14.97;85.99
57894;BME280;43710;47.460;19.034;2024-03-06T14:39:45;100319.00;;;15.04;94.84
57894;BME280;43710;47.460;19.034;2024-03-06T14:42:48;100306.75;;;14.98;86.48
57894;BME280;43710;47.460;19.034;2024-03-06T14:45:53;100310.06;;;14.64;76.96
57894;BME280;43710;47.460;19.034;2024-03-06T14:48:56;100320.84;;;14.41;85.00
57894;BME280;43710;47.460;19.034;2024-03-06T14:51:58;100328.59;;;14.20;82.81
57894;BME280;43710;47.460;19.034;2024-03-06T14:55:00;100320.16;;;14.13;88.50
57894;BME280;43710;47.460;19.034;2024-03-06T14:58:03;100317.50;;;13.99;89.78
57894;BME280;43710;47.460;19.034;2024-03-06T15:01:05;100321.19;;;14.03;83.67
57894;BME280;43710;47.460;19.034;2024-03-06T15:04:08;100318.91;;;13.97;80.14
57894;BME280;43710;47.460;19.034;2024-03-06T15:07:10;100320.34;;;13.94;76.88
57894;BME280;43710;47.460;19.034;2024-03-06T15:10:12;100320.53;;;13.98;75.10
57894;BME280;43710;47.460;19.034;2024-03-06T15:13:15;100324.09;;;13.93;77.36
57894;BME280;43710;47.460;19.034;2024-03-06T15:16:18;100325.13;;;13.83;77.20
57894;BME280;43710;47.460;19.034;2024-03-06T15:19:20;100320.16;;;13.77;76.90
57894;BME280;43710;47.460;19.034;2024-03-06T15:22:23;100313.69;;;13.78;76.17
57894;BME280;43710;47.460;19.034;2024-03-06T15:25:25;100318.75;;;13.79;95.78
57894;BME280;43710;47.460;19.034;2024-03-06T15:28:27;100317.97;;;13.79;83.87
57894;BME280;43710;47.460;19.034;2024-03-06T15:31:30;100320.38;;;13.67;84.45
57894;BME280;43710;47.460;19.034;2024-03-06T15:34:32;100325.16;;;13.70;84.36
57894;BME280;43710;47.460;19.034;2024-03-06T15:37:34;100328.84;;;13.74;92.56
57894;BME280;43710;47.460;19.034;2024-03-06T15:40:37;100329.72;;;13.83;92.31
57894;BME280;43710;47.460;19.034;2024-03-06T15:43:39;100323.12;;;13.89;84.40
57894;BME280;43710;47.460;19.034;2024-03-06T15:46:41;100323.03;;;13.94;84.67
57894;BME280;43710;47.460;19.034;2024-03-06T15:49:53;100321.31;;;13.98;83.46
57894;BME280;43710;47.460;19.034;2024-03-06T15:52:57;100332.88;;;13.99;78.87
57894;BME280;43710;47.460;19.034;2024-03-06T15:56:01;100333.38;;;14.01;82.37
57894;BME280;43710;47.460;19.034;2024-03-06T15:59:03;100337.16;;;14.00;78.89
57894;BME280;43710;47.460;19.034;2024-03-06T16:02:06;100339.66;;;13.96;78.45
57894;BME280;43710;47.460;19.034;2024-03-06T16:05:10;100336.50;;;13.94;83.00
57894;BME280;43710;47.460;19.034;2024-03-06T16:08:12;100330.69;;;13.87;95.64
57894;BME280;43710;47.460;19.034;2024-03-06T16:11:15;100335.00;;;13.88;98.97
57894;BME280;43710;47.460;19.034;2024-03-06T16:14:17;100338.09;;;13.95;99.72
57894;BME280;43710;47.460;19.034;2024-03-06T16:17:20;100342.66;;;14.31;95.68
57894;BME280;43710;47.460;19.034;2024-03-06T16:20:22;100339.28;;;14.25;82.92
57894;BME280;43710;47.460;19.034;2024-03-06T16:23:26;100340.38;;;14.02;76.31
57894;BME280;43710;47.460;19.034;2024-03-06T16:26:31;100347.00;;;13.82;91.57
57894;BME280;43710;47.460;19.034;2024-03-06T16:29:34;100349.78;;;13.77;99.38
57894;BME280;43710;47.460;19.034;2024-03-06T16:32:36;100350.38;;;13.74;98.83
57894;BME280;43710;47.460;19.034;2024-03-06T16:35:39;100349.31;;;13.75;87.01
57894;BME280;43710;47.460;19.034;2024-03-06T16:38:42;100357.88;;;13.77;85.52
57894;BME280;43710;47.460;19.034;2024-03-06T16:41:44;100354.78;;;13.70;88.32
57894;BME280;43710;47.460;19.034;2024-03-06T16:44:47;100359.28;;;13.74;87.11
57894;BME280;43710;47.460;19.034;2024-03-06T16:47:50;100365.16;;;13.76;80.67
57894;BME280;43710;47.460;19.034;2024-03-06T16:50:53;100370.84;;;13.89;94.74
57894;BME280;43710;47.460;19.034;2024-03-06T16:53:56;100378.25;;;13.69;76.93
57894;BME280;43710;47.460;19.034;2024-03-06T16:57:01;100382.72;;;13.74;88.02
